createdAt,value
2019-02-07T00:00:50.903Z,4.97
2019-02-07T00:03:19.683Z,4.83
2019-02-07T00:05:47.038Z,4.27
2019-02-07T00:08:15.214Z,5.07
2019-02-07T00:10:42.363Z,5.13
2019-02-07T00:13:09.722Z,4.37
2019-02-07T00:15:39.633Z,3.90
2019-02-07T00:18:07.195Z,2.90
2019-02-07T00:20:35.683Z,3.30
2019-02-07T00:23:03.134Z,3.13
2019-02-07T00:25:33.046Z,3.00
2019-02-07T00:28:00.504Z,3.93
2019-02-07T00:30:27.669Z,4.73
2019-02-07T00:32:54.908Z,5.53
2019-02-07T00:35:22.058Z,5.10
2019-02-07T00:37:50.127Z,4.67
2019-02-07T00:40:17.792Z,4.47
2019-02-07T00:42:45.268Z,4.57
2019-02-07T00:45:13.318Z,4.53
2019-02-07T00:47:40.471Z,5.07
2019-02-07T00:50:09.074Z,5.50
2019-02-07T00:52:36.059Z,4.63
2019-02-07T00:55:04.684Z,4.37
2019-02-07T00:57:31.638Z,4.10
2019-02-07T00:59:59.009Z,3.50
2019-02-07T01:02:26.099Z,3.50
2019-02-07T01:04:53.194Z,3.87
2019-02-07T01:07:20.339Z,4.50
2019-02-07T01:09:47.286Z,4.00
2019-02-07T01:12:14.220Z,3.40
2019-02-07T01:14:41.687Z,4.60
2019-02-07T01:17:09.137Z,3.97
2019-02-07T01:19:35.981Z,3.93
2019-02-07T01:22:02.967Z,4.07
2019-02-07T01:24:30.081Z,3.70
2019-02-07T01:26:57.229Z,4.30
2019-02-07T01:29:24.266Z,4.47
2019-02-07T01:31:51.428Z,4.10
2019-02-07T01:34:18.567Z,3.73
2019-02-07T01:36:45.717Z,4.63
2019-02-07T01:39:12.662Z,4.00
2019-02-07T01:41:39.813Z,3.87
2019-02-07T01:44:06.860Z,3.77
2019-02-07T01:46:33.916Z,4.20
2019-02-07T01:49:00.956Z,4.13
2019-02-07T01:51:28.925Z,4.47
2019-02-07T01:53:56.298Z,4.40
2019-02-07T01:56:23.228Z,4.30
2019-02-07T01:58:50.182Z,3.50
2019-02-07T02:01:17.223Z,4.37
2019-02-07T02:03:45.127Z,4.23
2019-02-07T02:06:13.314Z,3.77
2019-02-07T02:08:40.206Z,3.27
2019-02-07T02:11:07.161Z,4.00
2019-02-07T02:13:34.301Z,3.57
2019-02-07T02:16:01.246Z,4.23
2019-02-07T02:18:28.407Z,3.93
2019-02-07T02:20:55.557Z,4.00
2019-02-07T02:23:22.726Z,3.37
2019-02-07T02:25:49.757Z,3.50
2019-02-07T02:28:16.856Z,3.67
2019-02-07T02:30:44.159Z,3.27
2019-02-07T02:33:11.106Z,3.60
2019-02-07T02:35:38.253Z,3.63
2019-02-07T02:38:06.199Z,3.13
2019-02-07T02:40:34.286Z,3.30
2019-02-07T02:43:01.348Z,3.70
2019-02-07T02:45:37.142Z,3.23
2019-02-07T02:47:58.704Z,3.60
2019-02-07T02:50:26.488Z,3.47
2019-02-07T02:52:54.708Z,3.20
2019-02-07T02:55:36.680Z,3.60
2019-02-07T02:58:03.994Z,3.30
2019-02-07T03:00:50.110Z,3.33
2019-02-07T03:03:18.886Z,3.20
2019-02-07T03:05:50.200Z,3.43
2019-02-07T03:08:20.157Z,3.57
2019-02-07T03:10:52.131Z,3.57
2019-02-07T03:13:26.841Z,2.80
2019-02-07T03:16:14.782Z,3.50
2019-02-07T03:18:47.042Z,2.80
2019-02-07T03:21:26.264Z,2.80
2019-02-07T03:24:08.079Z,2.90
2019-02-07T03:26:39.929Z,2.80
2019-02-07T03:29:08.672Z,3.00
2019-02-07T03:31:40.690Z,3.50
2019-02-07T03:34:21.460Z,3.00
2019-02-07T03:37:02.332Z,3.60
2019-02-07T03:39:34.003Z,3.50
2019-02-07T03:42:12.495Z,3.03
2019-02-07T03:44:50.465Z,3.00
2019-02-07T03:47:37.323Z,3.30
2019-02-07T03:50:06.459Z,2.87
2019-02-07T03:52:35.216Z,3.33
2019-02-07T03:55:10.334Z,2.93
2019-02-07T03:57:39.226Z,3.00
2019-02-07T04:00:19.789Z,3.17
2019-02-07T04:02:48.702Z,3.07
2019-02-07T04:05:26.674Z,3.10
2019-02-07T04:08:13.506Z,2.83
2019-02-07T04:10:43.288Z,3.10
2019-02-07T04:13:28.790Z,3.07
2019-02-07T04:15:57.686Z,2.70
2019-02-07T04:18:33.130Z,2.93
2019-02-07T04:21:07.443Z,3.43
2019-02-07T04:23:38.675Z,3.20
2019-02-07T04:26:13.790Z,2.83
2019-02-07T04:28:43.882Z,3.07
2019-02-07T04:31:12.643Z,2.90
2019-02-07T04:33:44.199Z,2.57
2019-02-07T04:36:23.179Z,2.80
2019-02-07T04:39:04.290Z,2.63
2019-02-07T04:41:51.623Z,2.97
2019-02-07T04:44:37.504Z,2.90
2019-02-07T04:47:23.612Z,2.53
2019-02-07T04:49:55.013Z,2.93
2019-02-07T04:52:28.283Z,2.80
2019-02-07T04:55:14.032Z,3.03
2019-02-07T04:57:43.124Z,3.07
2019-02-07T05:00:30.706Z,3.07
2019-02-07T05:03:02.861Z,2.80
2019-02-07T05:05:34.618Z,2.90
2019-02-07T05:08:03.264Z,2.60
2019-02-07T05:10:32.121Z,2.67
2019-02-07T05:13:15.568Z,2.20
2019-02-07T05:15:45.094Z,2.90
2019-02-07T05:18:21.589Z,3.00
2019-02-07T05:20:54.767Z,2.90
2019-02-07T05:23:31.541Z,4.87
2019-02-07T05:26:09.335Z,4.10
2019-02-07T05:28:54.915Z,3.20
2019-02-07T05:31:30.982Z,5.23
2019-02-07T05:34:02.022Z,4.30
2019-02-07T05:36:33.987Z,4.87
2019-02-07T05:39:03.190Z,3.10
2019-02-07T05:41:49.379Z,3.33
2019-02-07T05:44:18.370Z,3.63
2019-02-07T05:46:53.090Z,3.03
2019-02-07T05:49:25.067Z,5.33
2019-02-07T05:51:59.884Z,4.20
2019-02-07T05:54:28.782Z,4.10
2019-02-07T05:57:14.057Z,3.13
2019-02-07T05:59:43.566Z,3.70
2019-02-07T06:02:12.409Z,3.60
2019-02-07T06:04:46.775Z,6.50
2019-02-07T06:07:32.354Z,4.33
2019-02-07T06:10:20.290Z,4.13
2019-02-07T06:13:03.825Z,3.87
2019-02-07T06:15:38.965Z,3.87
2019-02-07T06:18:15.198Z,3.80
2019-02-07T06:20:44.094Z,4.73
2019-02-07T06:23:12.797Z,3.90
2019-02-07T06:25:41.902Z,3.93
2019-02-07T06:28:13.300Z,4.00
2019-02-07T06:30:52.846Z,4.23
2019-02-07T06:33:38.272Z,4.27
2019-02-07T06:36:18.024Z,4.70
2019-02-07T06:38:47.207Z,4.73
2019-02-07T06:41:25.321Z,4.70
2019-02-07T06:44:10.606Z,4.73
2019-02-07T06:46:45.121Z,4.80
2019-02-07T06:49:13.841Z,5.07
2019-02-07T06:51:48.432Z,4.67
2019-02-07T06:54:17.212Z,4.70
2019-02-07T06:57:03.821Z,4.23
2019-02-07T06:59:38.138Z,4.63
2019-02-07T07:02:06.925Z,4.70
2019-02-07T07:04:35.565Z,4.37
2019-02-07T07:07:20.694Z,5.30
2019-02-07T07:09:49.512Z,7.30
2019-02-07T07:12:29.944Z,6.67
2019-02-07T07:15:04.252Z,6.03
2019-02-07T07:17:32.938Z,6.00
2019-02-07T07:20:02.378Z,5.57
2019-02-07T07:22:47.819Z,5.27
2019-02-07T07:25:19.703Z,4.83
2019-02-07T07:27:54.213Z,5.93
2019-02-07T07:30:29.657Z,4.07
2019-02-07T07:33:04.074Z,4.03
2019-02-07T07:35:38.387Z,4.90
2019-02-07T07:38:09.746Z,4.07
2019-02-07T07:40:41.629Z,4.33
2019-02-07T07:43:12.954Z,4.13
2019-02-07T07:45:41.728Z,4.80
2019-02-07T07:48:10.269Z,3.97
2019-02-07T07:50:47.607Z,4.60
2019-02-07T07:53:16.496Z,3.93
2019-02-07T07:55:45.193Z,4.13
2019-02-07T07:58:14.006Z,4.60
2019-02-07T08:00:59.357Z,4.40
2019-02-07T08:03:33.769Z,4.73
2019-02-07T08:06:20.897Z,5.97
2019-02-07T08:08:49.678Z,6.83
2019-02-07T08:11:27.688Z,4.87
2019-02-07T08:14:06.513Z,5.80
2019-02-07T08:16:37.899Z,5.33
2019-02-07T08:19:14.019Z,5.10
2019-02-07T08:21:48.946Z,5.33
2019-02-07T08:24:23.469Z,5.87
2019-02-07T08:27:07.106Z,5.07
2019-02-07T08:29:56.069Z,6.37
2019-02-07T08:32:27.777Z,5.40
2019-02-07T08:34:58.334Z,5.07
2019-02-07T08:37:27.042Z,5.53
2019-02-07T08:39:58.523Z,4.53
2019-02-07T08:42:42.236Z,5.83
2019-02-07T08:45:17.584Z,5.00
2019-02-07T08:47:46.410Z,4.23
2019-02-07T08:50:20.686Z,4.40
2019-02-07T08:53:06.313Z,5.10
2019-02-07T08:55:50.008Z,5.13
2019-02-07T08:58:30.945Z,4.57
2019-02-07T09:00:59.904Z,5.03
2019-02-07T09:03:28.762Z,5.13
2019-02-07T09:06:09.361Z,4.57
2019-02-07T09:08:49.796Z,5.37
2019-02-07T09:11:34.862Z,4.73
2019-02-07T09:14:03.695Z,4.00
2019-02-07T09:16:32.571Z,4.10
2019-02-07T09:19:18.256Z,4.57
2019-02-07T09:21:50.129Z,5.47
2019-02-07T09:24:35.291Z,5.90
2019-02-07T09:27:15.966Z,5.07
2019-02-07T09:30:01.240Z,4.03
2019-02-07T09:32:35.655Z,4.67
2019-02-07T09:35:19.810Z,4.63
2019-02-07T09:38:05.289Z,4.50
2019-02-07T09:40:51.785Z,4.53
2019-02-07T09:43:25.522Z,4.30
2019-02-07T09:45:54.548Z,4.73
2019-02-07T09:48:26.018Z,6.60
2019-02-07T09:51:06.248Z,7.47
2019-02-07T09:53:40.801Z,6.70
2019-02-07T09:56:26.509Z,6.37
2019-02-07T09:59:10.587Z,5.93
2019-02-07T10:01:48.460Z,5.83
2019-02-07T10:04:19.116Z,8.13
2019-02-07T10:06:56.892Z,6.37
2019-02-07T10:09:40.733Z,6.90
2019-02-07T10:12:10.742Z,5.77
2019-02-07T10:14:39.655Z,6.00
2019-02-07T10:17:20.801Z,6.53
2019-02-07T10:19:49.776Z,5.87
2019-02-07T10:22:18.664Z,5.73
2019-02-07T10:24:47.589Z,5.20
2019-02-07T10:27:16.271Z,5.70
2019-02-07T10:29:50.900Z,6.07
2019-02-07T10:32:28.494Z,5.63
2019-02-07T10:34:57.240Z,4.93
2019-02-07T10:37:27.101Z,4.90
2019-02-07T10:39:58.493Z,5.00
2019-02-07T10:42:42.079Z,3.93
2019-02-07T10:45:30.622Z,4.50
2019-02-07T10:48:01.879Z,4.37
2019-02-07T10:50:36.921Z,4.23
2019-02-07T10:53:11.549Z,4.40
2019-02-07T10:55:46.273Z,5.30
2019-02-07T10:58:17.797Z,5.63
2019-02-07T11:00:49.723Z,4.90
2019-02-07T11:03:34.860Z,4.67
2019-02-07T11:06:15.734Z,4.30
2019-02-07T11:08:47.093Z,4.27
2019-02-07T11:11:27.741Z,3.63
2019-02-07T11:14:11.294Z,3.87
2019-02-07T11:16:56.558Z,3.50
2019-02-07T11:19:37.830Z,3.53
2019-02-07T11:22:13.070Z,3.40
2019-02-07T11:24:58.764Z,3.50
2019-02-07T11:27:42.513Z,2.70
2019-02-07T11:30:19.075Z,2.87
2019-02-07T11:32:47.963Z,3.37
2019-02-07T11:35:25.550Z,4.13
2019-02-07T11:38:00.286Z,3.47
2019-02-07T11:40:44.027Z,2.40
2019-02-07T11:43:18.447Z,3.33
2019-02-07T11:45:55.853Z,2.93
2019-02-07T11:48:27.586Z,2.70
2019-02-07T11:51:12.460Z,3.60
2019-02-07T11:53:41.355Z,3.37
2019-02-07T11:56:12.692Z,3.90
2019-02-07T11:58:56.336Z,3.80
2019-02-07T12:01:25.157Z,2.93
2019-02-07T12:04:10.196Z,3.50
2019-02-07T12:06:39.029Z,2.60
2019-02-07T12:09:09.199Z,2.87
2019-02-07T12:11:37.884Z,3.03
2019-02-07T12:14:16.000Z,3.57
2019-02-07T12:16:44.778Z,3.27
2019-02-07T12:19:25.857Z,5.60
2019-02-07T12:21:57.717Z,6.97
2019-02-07T12:24:42.787Z,3.00
2019-02-07T12:27:26.730Z,5.27
2019-02-07T12:30:11.903Z,3.17
2019-02-07T12:32:46.836Z,2.43
2019-02-07T12:35:33.348Z,3.87
2019-02-07T12:38:04.902Z,3.20
2019-02-07T12:40:50.487Z,3.50
2019-02-07T12:43:19.328Z,3.07
2019-02-07T12:45:57.689Z,3.03
2019-02-07T12:48:42.954Z,2.50
2019-02-07T12:51:26.495Z,2.33
2019-02-07T12:53:58.025Z,5.90
2019-02-07T12:56:43.120Z,3.63
2019-02-07T12:59:28.193Z,2.40
2019-02-07T13:01:56.984Z,4.37
2019-02-07T13:04:40.713Z,3.00
2019-02-07T13:07:09.603Z,2.60
2019-02-07T13:09:47.414Z,2.80
2019-02-07T13:12:22.134Z,3.33
2019-02-07T13:15:03.012Z,2.40
2019-02-07T13:17:34.669Z,2.63
2019-02-07T13:20:03.466Z,2.87
2019-02-07T13:22:49.159Z,2.60
2019-02-07T13:25:17.919Z,4.73
2019-02-07T13:27:55.542Z,2.97
2019-02-07T13:30:27.183Z,2.20
2019-02-07T13:33:11.444Z,3.07
2019-02-07T13:35:52.322Z,2.03
2019-02-07T13:38:37.874Z,2.33
2019-02-07T13:41:06.940Z,4.23
2019-02-07T13:43:53.686Z,2.83
2019-02-07T13:46:31.591Z,3.10
2019-02-07T13:49:03.309Z,2.93
2019-02-07T13:51:48.417Z,2.33
2019-02-07T13:54:35.425Z,3.07
2019-02-07T13:57:09.960Z,3.63
2019-02-07T13:59:38.653Z,2.40
2019-02-07T14:02:24.525Z,2.87
2019-02-07T14:04:53.618Z,2.60
2019-02-07T14:07:22.205Z,2.60
2019-02-07T14:09:52.014Z,2.17
2019-02-07T14:12:26.277Z,2.87
2019-02-07T14:14:55.121Z,2.47
2019-02-07T14:17:40.395Z,2.57
2019-02-07T14:20:09.965Z,2.50
2019-02-07T14:22:50.644Z,2.67
2019-02-07T14:25:36.049Z,3.20
2019-02-07T14:28:04.747Z,4.10
2019-02-07T14:30:51.461Z,2.80
2019-02-07T14:33:20.335Z,3.00
2019-02-07T14:36:05.823Z,2.80
2019-02-07T14:38:37.188Z,2.83
2019-02-07T14:41:08.520Z,2.90
2019-02-07T14:43:42.942Z,3.30
2019-02-07T14:46:11.831Z,3.27
2019-02-07T14:48:38.871Z,3.90
2019-02-07T14:51:05.921Z,4.27
2019-02-07T14:53:32.966Z,4.10
2019-02-07T14:55:59.913Z,4.20
2019-02-07T14:58:26.959Z,4.43
2019-02-07T15:00:53.904Z,4.20
2019-02-07T15:03:20.850Z,3.23
2019-02-07T15:05:48.001Z,3.50
2019-02-07T15:08:16.087Z,3.60
2019-02-07T15:10:43.121Z,4.50
2019-02-07T15:13:09.963Z,3.87
2019-02-07T15:15:37.010Z,3.60
2019-02-07T15:18:04.263Z,6.10
2019-02-07T15:20:31.321Z,4.27
2019-02-07T15:22:58.976Z,4.40
2019-02-07T15:25:26.236Z,5.33
2019-02-07T15:27:53.183Z,4.70
2019-02-07T15:30:20.730Z,4.37
2019-02-07T15:32:48.708Z,5.20
2019-02-07T15:35:17.190Z,6.47
2019-02-07T15:37:44.433Z,4.90
2019-02-07T15:40:12.608Z,4.63
2019-02-07T15:42:41.089Z,4.63
2019-02-07T15:45:09.775Z,4.10
2019-02-07T15:47:36.722Z,4.87
2019-02-07T15:50:05.430Z,4.10
2019-02-07T15:52:32.134Z,4.67
2019-02-07T15:54:59.195Z,5.10
2019-02-07T15:57:26.354Z,5.23
2019-02-07T15:59:53.709Z,4.97
2019-02-07T16:02:20.860Z,5.93
2019-02-07T16:04:47.897Z,7.57
2019-02-07T16:07:14.955Z,6.90
2019-02-07T16:09:41.858Z,6.20
2019-02-07T16:12:08.840Z,10.10
2019-02-07T16:14:36.098Z,6.97
2019-02-07T16:17:03.137Z,7.47
2019-02-07T16:19:31.423Z,6.50
2019-02-07T16:21:58.603Z,7.30
2019-02-07T16:24:27.763Z,6.57
2019-02-07T16:26:54.818Z,9.37
2019-02-07T16:29:22.789Z,6.83
2019-02-07T16:31:49.826Z,6.03
2019-02-07T16:34:18.822Z,6.57
2019-02-07T16:36:45.774Z,7.17
2019-02-07T16:39:13.028Z,6.60
2019-02-07T16:41:40.074Z,7.07
2019-02-07T16:44:07.226Z,6.47
2019-02-07T16:46:34.477Z,6.10
2019-02-07T16:49:01.524Z,5.57
2019-02-07T16:51:29.804Z,5.17
2019-02-07T16:53:57.009Z,4.73
2019-02-07T16:56:24.206Z,8.50
2019-02-07T16:58:51.355Z,6.30
2019-02-07T17:01:18.394Z,6.20
2019-02-07T17:03:45.451Z,7.97
2019-02-07T17:06:12.488Z,6.07
2019-02-07T17:08:39.742Z,7.00
2019-02-07T17:11:06.892Z,6.27
2019-02-07T17:13:33.939Z,6.93
2019-02-07T17:16:00.885Z,7.30
2019-02-07T17:18:27.839Z,7.70
2019-02-07T17:20:54.990Z,6.83
2019-02-07T17:23:22.028Z,7.30
2019-02-07T17:25:48.986Z,7.57
2019-02-07T17:28:16.137Z,7.80
2019-02-07T17:30:43.182Z,6.97
2019-02-07T17:33:10.228Z,7.70
2019-02-07T17:35:37.379Z,8.20
2019-02-07T17:38:04.485Z,8.03
2019-02-07T17:40:31.574Z,8.23
2019-02-07T17:42:58.624Z,7.27
2019-02-07T17:45:26.700Z,8.03
2019-02-07T17:47:53.742Z,8.37
2019-02-07T17:50:22.627Z,8.87
2019-02-07T17:52:50.412Z,9.73
2019-02-07T17:55:18.874Z,10.40
2019-02-07T17:57:46.953Z,9.53
2019-02-07T18:00:38.170Z,7.97
2019-02-07T18:03:05.215Z,8.40
2019-02-07T18:05:32.262Z,8.13
2019-02-07T18:07:59.412Z,8.43
2019-02-07T18:10:28.626Z,7.77
2019-02-07T18:12:55.309Z,8.20
2019-02-07T18:15:22.689Z,8.30
2019-02-07T18:17:49.546Z,8.43
2019-02-07T18:20:17.114Z,8.23
2019-02-07T18:22:44.362Z,10.57
2019-02-07T18:25:11.415Z,9.73
2019-02-07T18:27:38.380Z,7.17
2019-02-07T18:30:06.932Z,8.67
2019-02-07T18:32:33.776Z,9.50
2019-02-07T18:35:00.821Z,10.27
2019-02-07T18:37:27.768Z,11.87
2019-02-07T18:39:54.815Z,9.93
2019-02-07T18:42:22.683Z,11.27
2019-02-07T18:44:49.935Z,10.73
2019-02-07T18:47:16.883Z,9.80
2019-02-07T18:49:43.723Z,10.03
2019-02-07T18:52:11.080Z,8.63
2019-02-07T18:54:38.032Z,9.27
2019-02-07T18:57:05.081Z,9.17
2019-02-07T18:59:32.118Z,8.50
2019-02-07T19:01:59.167Z,8.30
2019-02-07T19:04:26.276Z,7.10
2019-02-07T19:06:53.259Z,7.80
2019-02-07T19:09:20.317Z,7.10
2019-02-07T19:11:47.561Z,7.77
2019-02-07T19:14:14.404Z,9.03
2019-02-07T19:16:41.280Z,9.53
2019-02-07T19:19:08.192Z,10.10
2019-02-07T19:21:35.351Z,9.23
2019-02-07T19:24:03.525Z,9.20
2019-02-07T19:26:30.575Z,7.97
2019-02-07T19:28:57.723Z,7.73
2019-02-07T19:31:24.979Z,6.77
2019-02-07T19:33:52.025Z,6.97
2019-02-07T19:36:19.173Z,6.60
2019-02-07T19:38:46.314Z,6.87
2019-02-07T19:41:13.371Z,6.60
2019-02-07T19:43:40.424Z,6.63
2019-02-07T19:46:07.458Z,6.40
2019-02-07T19:48:34.508Z,7.77
2019-02-07T19:51:02.074Z,6.83
2019-02-07T19:53:29.524Z,6.53
2019-02-07T19:55:56.784Z,6.27
2019-02-07T19:58:24.756Z,6.93
2019-02-07T20:00:52.621Z,8.67
2019-02-07T20:03:20.429Z,8.03
2019-02-07T20:05:48.109Z,8.60
2019-02-07T20:08:15.638Z,8.40
2019-02-07T20:10:43.678Z,8.37
2019-02-07T20:13:11.853Z,8.60
2019-02-07T20:15:40.745Z,8.33
2019-02-07T20:18:08.329Z,8.47
2019-02-07T20:20:36.457Z,8.17
2019-02-07T20:23:04.550Z,8.03
2019-02-07T20:25:32.630Z,8.17
2019-02-07T20:28:01.004Z,8.30
2019-02-07T20:30:30.153Z,7.93
2019-02-07T20:32:58.285Z,8.43
2019-02-07T20:35:26.403Z,8.23
2019-02-07T20:37:54.517Z,7.97
2019-02-07T20:40:26.134Z,8.37
2019-02-07T20:42:54.142Z,8.63
2019-02-07T20:45:22.555Z,7.70
2019-02-07T20:47:50.388Z,7.17
2019-02-07T20:50:19.063Z,7.57
2019-02-07T20:52:47.103Z,7.37
2019-02-07T20:55:16.169Z,8.70
2019-02-07T20:57:43.553Z,7.67
2019-02-07T21:00:22.310Z,7.13
2019-02-07T21:02:51.616Z,7.47
2019-02-07T21:05:19.894Z,6.70
2019-02-07T21:07:47.871Z,6.80
2019-02-07T21:10:17.678Z,6.53
2019-02-07T21:12:45.816Z,7.67
2019-02-07T21:15:18.717Z,7.07
2019-02-07T21:17:44.763Z,6.80
2019-02-07T21:20:13.533Z,6.30
2019-02-07T21:22:40.913Z,6.10
2019-02-07T21:25:10.041Z,7.60
2019-02-07T21:27:38.200Z,7.23
2019-02-07T21:30:08.159Z,12.90
2019-02-07T21:32:36.585Z,9.27
2019-02-07T21:35:05.950Z,9.43
2019-02-07T21:37:33.856Z,7.93
2019-02-07T21:40:01.638Z,8.20
2019-02-07T21:42:29.648Z,8.17
2019-02-07T21:44:57.558Z,6.83
2019-02-07T21:47:25.414Z,6.20
2019-02-07T21:49:53.349Z,7.63
2019-02-07T21:52:21.089Z,6.90
2019-02-07T21:54:49.128Z,5.57
2019-02-07T21:57:16.698Z,5.63
2019-02-07T21:59:43.826Z,5.67
2019-02-07T22:02:12.113Z,5.90
2019-02-07T22:04:39.047Z,5.50
2019-02-07T22:07:05.994Z,5.97
2019-02-07T22:09:33.260Z,6.57
2019-02-07T22:12:00.601Z,7.23
2019-02-07T22:14:27.649Z,6.47
2019-02-07T22:16:54.706Z,7.27
2019-02-07T22:19:21.859Z,6.53
2019-02-07T22:21:48.794Z,6.17
2019-02-07T22:24:16.053Z,6.43
2019-02-07T22:26:43.229Z,6.43
2019-02-07T22:29:10.170Z,5.90
2019-02-07T22:31:37.509Z,5.67
2019-02-07T22:34:04.541Z,6.20
2019-02-07T22:36:32.500Z,6.10
2019-02-07T22:38:59.561Z,6.57
2019-02-07T22:41:26.506Z,6.90
2019-02-07T22:43:53.654Z,5.70
2019-02-07T22:46:20.711Z,6.83
2019-02-07T22:48:47.648Z,5.17
2019-02-07T22:51:14.799Z,6.50
2019-02-07T22:53:41.780Z,6.67
2019-02-07T22:56:08.789Z,6.30
2019-02-07T22:58:35.860Z,5.23
2019-02-07T23:01:04.729Z,6.23
2019-02-07T23:03:31.786Z,6.00
2019-02-07T23:05:59.039Z,6.67
2019-02-07T23:08:26.393Z,5.40
2019-02-07T23:10:53.535Z,5.53
2019-02-07T23:13:20.692Z,5.10
2019-02-07T23:15:47.733Z,4.83
2019-02-07T23:18:15.814Z,5.30
2019-02-07T23:20:43.478Z,5.20
2019-02-07T23:23:10.931Z,5.60
2019-02-07T23:25:38.390Z,5.70
2019-02-07T23:28:05.532Z,5.73
2019-02-07T23:30:32.691Z,5.87
2019-02-07T23:32:59.718Z,5.07
2019-02-07T23:35:27.698Z,4.67
2019-02-07T23:37:54.753Z,6.57
2019-02-07T23:40:21.797Z,5.30
2019-02-07T23:42:48.855Z,5.13
2019-02-07T23:45:16.914Z,5.27
2019-02-07T23:47:44.986Z,5.67
2019-02-07T23:50:12.245Z,6.07
2019-02-07T23:52:39.241Z,5.97
2019-02-07T23:55:07.256Z,6.17
2019-02-07T23:57:34.315Z,6.33
